sensor_id;sensor_type;location;lat;lon;timestamp;P1;durP1;ratioP1;P2;durP2;ratioP2
79578;SDS011;69051;52.406;5.280;2023-10-31T00:00:09;6.25;;;0.98;;
79578;SDS011;69051;52.406;5.280;2023-10-31T00:02:37;5.03;;;1.73;;
79578;SDS011;69051;52.406;5.280;2023-10-31T00:05:04;8.02;;;1.38;;
79578;SDS011;69051;52.406;5.280;2023-10-31T00:07:31;7.75;;;1.10;;
79578;SDS011;69051;52.406;5.280;2023-10-31T00:09:57;7.30;;;1.50;;
79578;SDS011;69051;52.406;5.280;2023-10-31T00:12:24;6.30;;;1.33;;
79578;SDS011;69051;52.406;5.280;2023-10-31T00:14:50;4.25;;;1.20;;
79578;SDS011;69051;52.406;5.280;2023-10-31T00:17:17;11.43;;;1.65;;
79578;SDS011;69051;52.406;5.280;2023-10-31T00:19:43;7.05;;;1.63;;
79578;SDS011;69051;52.406;5.280;2023-10-31T00:22:10;13.90;;;2.38;;
79578;SDS011;69051;52.406;5.280;2023-10-31T00:24:37;11.98;;;2.03;;
79578;SDS011;69051;52.406;5.280;2023-10-31T00:27:03;10.68;;;2.75;;
79578;SDS011;69051;52.406;5.280;2023-10-31T00:29:30;10.13;;;2.60;;
79578;SDS011;69051;52.406;5.280;2023-10-31T00:31:56;10.68;;;2.90;;
79578;SDS011;69051;52.406;5.280;2023-10-31T00:34:23;8.02;;;3.10;;
79578;SDS011;69051;52.406;5.280;2023-10-31T00:36:49;7.60;;;2.83;;
79578;SDS011;69051;52.406;5.280;2023-10-31T00:39:16;9.40;;;3.10;;
79578;SDS011;69051;52.406;5.280;2023-10-31T00:41:45;11.32;;;3.83;;
79578;SDS011;69051;52.406;5.280;2023-10-31T00:44:12;12.57;;;3.80;;
79578;SDS011;69051;52.406;5.280;2023-10-31T00:46:39;15.55;;;4.47;;
79578;SDS011;69051;52.406;5.280;2023-10-31T00:49:06;18.50;;;5.50;;
79578;SDS011;69051;52.406;5.280;2023-10-31T00:51:32;15.90;;;5.47;;
79578;SDS011;69051;52.406;5.280;2023-10-31T00:53:59;17.25;;;5.78;;
79578;SDS011;69051;52.406;5.280;2023-10-31T00:56:25;17.05;;;5.28;;
79578;SDS011;69051;52.406;5.280;2023-10-31T00:58:52;16.55;;;4.93;;
79578;SDS011;69051;52.406;5.280;2023-10-31T01:01:18;16.08;;;4.88;;
79578;SDS011;69051;52.406;5.280;2023-10-31T01:03:45;16.58;;;4.85;;
79578;SDS011;69051;52.406;5.280;2023-10-31T01:06:11;14.88;;;4.45;;
79578;SDS011;69051;52.406;5.280;2023-10-31T01:08:37;16.25;;;5.03;;
79578;SDS011;69051;52.406;5.280;2023-10-31T01:11:04;13.80;;;4.68;;
79578;SDS011;69051;52.406;5.280;2023-10-31T01:13:30;12.65;;;4.78;;
79578;SDS011;69051;52.406;5.280;2023-10-31T01:15:57;12.82;;;5.13;;
79578;SDS011;69051;52.406;5.280;2023-10-31T01:18:23;15.13;;;4.30;;
79578;SDS011;69051;52.406;5.280;2023-10-31T01:20:50;14.43;;;4.78;;
79578;SDS011;69051;52.406;5.280;2023-10-31T01:23:16;13.82;;;3.63;;
79578;SDS011;69051;52.406;5.280;2023-10-31T01:25:43;13.13;;;3.25;;
79578;SDS011;69051;52.406;5.280;2023-10-31T01:28:09;8.73;;;2.80;;
79578;SDS011;69051;52.406;5.280;2023-10-31T01:30:36;8.60;;;3.22;;
79578;SDS011;69051;52.406;5.280;2023-10-31T01:33:02;10.55;;;3.60;;
79578;SDS011;69051;52.406;5.280;2023-10-31T01:35:29;10.57;;;3.05;;
79578;SDS011;69051;52.406;5.280;2023-10-31T01:37:56;12.70;;;3.25;;
79578;SDS011;69051;52.406;5.280;2023-10-31T01:40:22;14.70;;;3.92;;
79578;SDS011;69051;52.406;5.280;2023-10-31T01:42:49;15.20;;;4.93;;
79578;SDS011;69051;52.406;5.280;2023-10-31T01:45:15;13.85;;;4.78;;
79578;SDS011;69051;52.406;5.280;2023-10-31T01:47:42;15.15;;;5.03;;
79578;SDS011;69051;52.406;5.280;2023-10-31T01:50:10;16.23;;;5.45;;
79578;SDS011;69051;52.406;5.280;2023-10-31T01:52:37;15.30;;;5.85;;
79578;SDS011;69051;52.406;5.280;2023-10-31T01:55:04;17.40;;;5.10;;
79578;SDS011;69051;52.406;5.280;2023-10-31T01:57:31;17.95;;;5.25;;
79578;SDS011;69051;52.406;5.280;2023-10-31T01:59:57;20.20;;;6.32;;
79578;SDS011;69051;52.406;5.280;2023-10-31T02:02:24;20.08;;;5.82;;
79578;SDS011;69051;52.406;5.280;2023-10-31T02:04:51;17.02;;;5.45;;
79578;SDS011;69051;52.406;5.280;2023-10-31T02:07:18;18.52;;;6.65;;
79578;SDS011;69051;52.406;5.280;2023-10-31T02:09:44;21.00;;;6.47;;
79578;SDS011;69051;52.406;5.280;2023-10-31T02:12:12;18.33;;;7.07;;
79578;SDS011;69051;52.406;5.280;2023-10-31T02:14:57;18.23;;;7.43;;
79578;SDS011;69051;52.406;5.280;2023-10-31T02:17:23;20.98;;;6.75;;
79578;SDS011;69051;52.406;5.280;2023-10-31T02:19:50;18.90;;;6.75;;
79578;SDS011;69051;52.406;5.280;2023-10-31T02:22:16;17.25;;;6.45;;
79578;SDS011;69051;52.406;5.280;2023-10-31T02:24:43;18.23;;;7.40;;
79578;SDS011;69051;52.406;5.280;2023-10-31T02:27:09;21.42;;;6.80;;
79578;SDS011;69051;52.406;5.280;2023-10-31T02:29:36;17.85;;;6.03;;
79578;SDS011;69051;52.406;5.280;2023-10-31T02:32:03;15.02;;;6.43;;
79578;SDS011;69051;52.406;5.280;2023-10-31T02:34:29;17.73;;;6.40;;
79578;SDS011;69051;52.406;5.280;2023-10-31T02:36:56;13.35;;;5.53;;
79578;SDS011;69051;52.406;5.280;2023-10-31T02:39:22;15.80;;;5.70;;
79578;SDS011;69051;52.406;5.280;2023-10-31T02:41:48;10.77;;;4.38;;
79578;SDS011;69051;52.406;5.280;2023-10-31T02:44:15;15.00;;;4.05;;
79578;SDS011;69051;52.406;5.280;2023-10-31T02:46:42;11.32;;;3.70;;
79578;SDS011;69051;52.406;5.280;2023-10-31T02:49:08;11.55;;;3.75;;
79578;SDS011;69051;52.406;5.280;2023-10-31T02:51:36;9.38;;;2.90;;
79578;SDS011;69051;52.406;5.280;2023-10-31T02:54:02;7.05;;;2.75;;
79578;SDS011;69051;52.406;5.280;2023-10-31T02:56:29;5.00;;;2.30;;
79578;SDS011;69051;52.406;5.280;2023-10-31T02:58:56;9.15;;;2.17;;
79578;SDS011;69051;52.406;5.280;2023-10-31T03:01:22;7.93;;;2.10;;
79578;SDS011;69051;52.406;5.280;2023-10-31T03:03:49;8.23;;;1.48;;
79578;SDS011;69051;52.406;5.280;2023-10-31T03:06:15;7.65;;;1.92;;
79578;SDS011;69051;52.406;5.280;2023-10-31T03:08:42;8.55;;;1.83;;
79578;SDS011;69051;52.406;5.280;2023-10-31T03:11:08;8.85;;;1.50;;
79578;SDS011;69051;52.406;5.280;2023-10-31T03:13:34;6.75;;;1.90;;
79578;SDS011;69051;52.406;5.280;2023-10-31T03:16:01;6.90;;;1.90;;
79578;SDS011;69051;52.406;5.280;2023-10-31T03:18:27;7.63;;;1.92;;
79578;SDS011;69051;52.406;5.280;2023-10-31T03:20:55;10.40;;;1.55;;
79578;SDS011;69051;52.406;5.280;2023-10-31T03:23:21;5.10;;;1.70;;
79578;SDS011;69051;52.406;5.280;2023-10-31T03:25:48;5.63;;;1.63;;
79578;SDS011;69051;52.406;5.280;2023-10-31T03:28:18;4.60;;;1.48;;
79578;SDS011;69051;52.406;5.280;2023-10-31T03:30:47;5.82;;;2.20;;
79578;SDS011;69051;52.406;5.280;2023-10-31T03:33:14;9.60;;;1.55;;
79578;SDS011;69051;52.406;5.280;2023-10-31T03:35:40;9.18;;;1.50;;
79578;SDS011;69051;52.406;5.280;2023-10-31T03:38:07;2.83;;;1.05;;
79578;SDS011;69051;52.406;5.280;2023-10-31T03:40:33;8.98;;;1.30;;
79578;SDS011;69051;52.406;5.280;2023-10-31T03:43:00;2.80;;;0.98;;
79578;SDS011;69051;52.406;5.280;2023-10-31T03:45:26;5.07;;;1.10;;
79578;SDS011;69051;52.406;5.280;2023-10-31T03:47:53;4.72;;;1.35;;
79578;SDS011;69051;52.406;5.280;2023-10-31T03:50:19;5.22;;;0.70;;
79578;SDS011;69051;52.406;5.280;2023-10-31T03:52:46;3.88;;;1.23;;
79578;SDS011;69051;52.406;5.280;2023-10-31T03:55:12;5.53;;;1.17;;
79578;SDS011;69051;52.406;5.280;2023-10-31T03:57:40;5.20;;;0.68;;
79578;SDS011;69051;52.406;5.280;2023-10-31T04:00:06;2.10;;;0.82;;
79578;SDS011;69051;52.406;5.280;2023-10-31T04:02:33;3.00;;;0.98;;
79578;SDS011;69051;52.406;5.280;2023-10-31T04:05:00;5.22;;;1.25;;
79578;SDS011;69051;52.406;5.280;2023-10-31T04:07:26;6.28;;;1.50;;
79578;SDS011;69051;52.406;5.280;2023-10-31T04:09:52;1.65;;;0.80;;
79578;SDS011;69051;52.406;5.280;2023-10-31T04:12:20;5.43;;;0.88;;
79578;SDS011;69051;52.406;5.280;2023-10-31T04:14:46;3.28;;;0.77;;
79578;SDS011;69051;52.406;5.280;2023-10-31T04:17:12;2.30;;;0.63;;
79578;SDS011;69051;52.406;5.280;2023-10-31T04:19:39;2.58;;;0.90;;
79578;SDS011;69051;52.406;5.280;2023-10-31T04:22:06;4.68;;;0.90;;
79578;SDS011;69051;52.406;5.280;2023-10-31T04:24:32;3.08;;;0.85;;
79578;SDS011;69051;52.406;5.280;2023-10-31T04:26:59;3.38;;;1.23;;
79578;SDS011;69051;52.406;5.280;2023-10-31T04:29:25;2.80;;;0.90;;
79578;SDS011;69051;52.406;5.280;2023-10-31T04:31:52;3.28;;;0.80;;
79578;SDS011;69051;52.406;5.280;2023-10-31T04:34:18;4.20;;;0.80;;
79578;SDS011;69051;52.406;5.280;2023-10-31T04:36:45;4.25;;;1.42;;
79578;SDS011;69051;52.406;5.280;2023-10-31T04:39:11;2.97;;;1.00;;
79578;SDS011;69051;52.406;5.280;2023-10-31T04:41:37;3.05;;;0.52;;
79578;SDS011;69051;52.406;5.280;2023-10-31T04:44:04;3.25;;;0.95;;
79578;SDS011;69051;52.406;5.280;2023-10-31T04:46:31;5.90;;;1.00;;
79578;SDS011;69051;52.406;5.280;2023-10-31T04:48:57;3.45;;;0.77;;
79578;SDS011;69051;52.406;5.280;2023-10-31T04:51:24;2.88;;;1.00;;
79578;SDS011;69051;52.406;5.280;2023-10-31T04:53:50;3.15;;;1.15;;
79578;SDS011;69051;52.406;5.280;2023-10-31T04:56:17;4.88;;;0.82;;
79578;SDS011;69051;52.406;5.280;2023-10-31T04:58:45;2.22;;;0.90;;
79578;SDS011;69051;52.406;5.280;2023-10-31T05:01:12;8.63;;;1.20;;
79578;SDS011;69051;52.406;5.280;2023-10-31T05:03:39;3.88;;;1.00;;
79578;SDS011;69051;52.406;5.280;2023-10-31T05:06:05;4.45;;;1.00;;
79578;SDS011;69051;52.406;5.280;2023-10-31T05:08:32;3.38;;;0.73;;
79578;SDS011;69051;52.406;5.280;2023-10-31T05:10:59;6.53;;;0.75;;
79578;SDS011;69051;52.406;5.280;2023-10-31T05:13:25;3.58;;;0.95;;
79578;SDS011;69051;52.406;5.280;2023-10-31T05:15:52;8.27;;;0.90;;
79578;SDS011;69051;52.406;5.280;2023-10-31T05:18:19;5.30;;;1.05;;
79578;SDS011;69051;52.406;5.280;2023-10-31T05:20:45;5.40;;;0.90;;
79578;SDS011;69051;52.406;5.280;2023-10-31T05:23:12;6.82;;;0.85;;
79578;SDS011;69051;52.406;5.280;2023-10-31T05:25:39;6.65;;;1.13;;
79578;SDS011;69051;52.406;5.280;2023-10-31T05:28:05;7.20;;;0.88;;
79578;SDS011;69051;52.406;5.280;2023-10-31T05:30:32;3.47;;;1.05;;
79578;SDS011;69051;52.406;5.280;2023-10-31T05:32:58;7.57;;;1.70;;
79578;SDS011;69051;52.406;5.280;2023-10-31T05:35:25;4.07;;;0.82;;
79578;SDS011;69051;52.406;5.280;2023-10-31T05:37:51;3.88;;;0.93;;
79578;SDS011;69051;52.406;5.280;2023-10-31T05:40:18;5.82;;;1.42;;
79578;SDS011;69051;52.406;5.280;2023-10-31T05:42:45;7.05;;;1.30;;
79578;SDS011;69051;52.406;5.280;2023-10-31T05:45:11;6.20;;;1.10;;
79578;SDS011;69051;52.406;5.280;2023-10-31T05:47:38;2.97;;;1.10;;
79578;SDS011;69051;52.406;5.280;2023-10-31T05:50:05;5.05;;;0.68;;
79578;SDS011;69051;52.406;5.280;2023-10-31T05:52:32;5.55;;;1.25;;
79578;SDS011;69051;52.406;5.280;2023-10-31T05:54:59;4.97;;;1.10;;
79578;SDS011;69051;52.406;5.280;2023-10-31T05:57:25;7.80;;;1.23;;
79578;SDS011;69051;52.406;5.280;2023-10-31T05:59:52;4.82;;;1.33;;
79578;SDS011;69051;52.406;5.280;2023-10-31T06:02:18;4.75;;;1.10;;
79578;SDS011;69051;52.406;5.280;2023-10-31T06:04:45;6.97;;;1.40;;
79578;SDS011;69051;52.406;5.280;2023-10-31T06:07:11;8.35;;;1.88;;
79578;SDS011;69051;52.406;5.280;2023-10-31T06:09:38;7.28;;;1.52;;
79578;SDS011;69051;52.406;5.280;2023-10-31T06:12:04;5.35;;;1.90;;
79578;SDS011;69051;52.406;5.280;2023-10-31T06:14:31;6.30;;;2.10;;
79578;SDS011;69051;52.406;5.280;2023-10-31T06:16:58;8.43;;;2.63;;
79578;SDS011;69051;52.406;5.280;2023-10-31T06:19:26;9.57;;;3.30;;
79578;SDS011;69051;52.406;5.280;2023-10-31T06:21:52;12.60;;;3.10;;
79578;SDS011;69051;52.406;5.280;2023-10-31T06:24:19;11.07;;;3.95;;
79578;SDS011;69051;52.406;5.280;2023-10-31T06:26:45;12.05;;;3.75;;
79578;SDS011;69051;52.406;5.280;2023-10-31T06:29:12;12.10;;;3.97;;
79578;SDS011;69051;52.406;5.280;2023-10-31T06:31:58;10.57;;;4.10;;
79578;SDS011;69051;52.406;5.280;2023-10-31T06:34:25;10.02;;;3.63;;
79578;SDS011;69051;52.406;5.280;2023-10-31T06:36:51;10.07;;;3.50;;
79578;SDS011;69051;52.406;5.280;2023-10-31T06:39:18;9.85;;;3.58;;
79578;SDS011;69051;52.406;5.280;2023-10-31T06:41:45;7.75;;;2.85;;
79578;SDS011;69051;52.406;5.280;2023-10-31T06:44:11;8.43;;;2.33;;
79578;SDS011;69051;52.406;5.280;2023-10-31T06:46:38;10.68;;;2.58;;
79578;SDS011;69051;52.406;5.280;2023-10-31T06:49:04;11.98;;;2.00;;
79578;SDS011;69051;52.406;5.280;2023-10-31T06:51:31;6.90;;;2.53;;
79578;SDS011;69051;52.406;5.280;2023-10-31T06:53:57;8.55;;;2.00;;
79578;SDS011;69051;52.406;5.280;2023-10-31T06:56:24;7.53;;;2.47;;
79578;SDS011;69051;52.406;5.280;2023-10-31T06:58:50;8.45;;;2.97;;
79578;SDS011;69051;52.406;5.280;2023-10-31T07:01:17;6.45;;;3.10;;
79578;SDS011;69051;52.406;5.280;2023-10-31T07:03:46;12.57;;;3.65;;
79578;SDS011;69051;52.406;5.280;2023-10-31T07:06:13;11.45;;;3.05;;
79578;SDS011;69051;52.406;5.280;2023-10-31T07:08:39;9.07;;;3.63;;
79578;SDS011;69051;52.406;5.280;2023-10-31T07:11:06;12.23;;;4.03;;
79578;SDS011;69051;52.406;5.280;2023-10-31T07:13:32;8.80;;;4.30;;
79578;SDS011;69051;52.406;5.280;2023-10-31T07:15:59;14.43;;;5.30;;
79578;SDS011;69051;52.406;5.280;2023-10-31T07:18:25;11.50;;;4.78;;
79578;SDS011;69051;52.406;5.280;2023-10-31T07:20:53;11.73;;;6.00;;
79578;SDS011;69051;52.406;5.280;2023-10-31T07:23:19;15.10;;;6.03;;
79578;SDS011;69051;52.406;5.280;2023-10-31T07:25:45;18.65;;;6.15;;
79578;SDS011;69051;52.406;5.280;2023-10-31T07:28:12;14.57;;;6.30;;
79578;SDS011;69051;52.406;5.280;2023-10-31T07:30:39;16.63;;;6.47;;
79578;SDS011;69051;52.406;5.280;2023-10-31T07:33:05;12.57;;;6.15;;
79578;SDS011;69051;52.406;5.280;2023-10-31T07:35:32;12.30;;;5.82;;
79578;SDS011;69051;52.406;5.280;2023-10-31T07:37:58;14.82;;;6.45;;
79578;SDS011;69051;52.406;5.280;2023-10-31T07:40:25;13.30;;;6.25;;
79578;SDS011;69051;52.406;5.280;2023-10-31T07:42:51;14.55;;;5.15;;
79578;SDS011;69051;52.406;5.280;2023-10-31T07:45:18;16.77;;;6.32;;
79578;SDS011;69051;52.406;5.280;2023-10-31T07:47:44;12.50;;;5.28;;
79578;SDS011;69051;52.406;5.280;2023-10-31T07:50:11;15.05;;;5.75;;
79578;SDS011;69051;52.406;5.280;2023-10-31T07:52:37;12.98;;;4.53;;
79578;SDS011;69051;52.406;5.280;2023-10-31T07:55:04;14.60;;;4.57;;
79578;SDS011;69051;52.406;5.280;2023-10-31T07:57:30;14.05;;;4.45;;
79578;SDS011;69051;52.406;5.280;2023-10-31T07:59:57;12.52;;;4.55;;
79578;SDS011;69051;52.406;5.280;2023-10-31T08:02:23;12.18;;;3.50;;
79578;SDS011;69051;52.406;5.280;2023-10-31T08:04:50;10.20;;;3.45;;
79578;SDS011;69051;52.406;5.280;2023-10-31T08:07:16;11.25;;;4.18;;
79578;SDS011;69051;52.406;5.280;2023-10-31T08:09:43;14.35;;;4.47;;
79578;SDS011;69051;52.406;5.280;2023-10-31T08:12:09;11.90;;;3.75;;
79578;SDS011;69051;52.406;5.280;2023-10-31T08:14:36;8.38;;;2.95;;
79578;SDS011;69051;52.406;5.280;2023-10-31T08:17:03;17.77;;;5.32;;
79578;SDS011;69051;52.406;5.280;2023-10-31T08:19:29;10.40;;;3.63;;
79578;SDS011;69051;52.406;5.280;2023-10-31T08:21:56;7.38;;;2.50;;
79578;SDS011;69051;52.406;5.280;2023-10-31T08:24:24;7.88;;;2.92;;
79578;SDS011;69051;52.406;5.280;2023-10-31T08:26:51;9.70;;;3.13;;
79578;SDS011;69051;52.406;5.280;2023-10-31T08:29:17;8.85;;;2.30;;
79578;SDS011;69051;52.406;5.280;2023-10-31T08:31:44;4.40;;;2.38;;
79578;SDS011;69051;52.406;5.280;2023-10-31T08:34:10;6.35;;;3.13;;
79578;SDS011;69051;52.406;5.280;2023-10-31T08:36:37;6.65;;;2.90;;
79578;SDS011;69051;52.406;5.280;2023-10-31T08:39:03;13.73;;;2.42;;
79578;SDS011;69051;52.406;5.280;2023-10-31T08:41:30;5.78;;;2.17;;
79578;SDS011;69051;52.406;5.280;2023-10-31T08:43:56;7.20;;;2.20;;
79578;SDS011;69051;52.406;5.280;2023-10-31T08:46:24;6.53;;;2.75;;
79578;SDS011;69051;52.406;5.280;2023-10-31T08:48:51;6.85;;;1.90;;
79578;SDS011;69051;52.406;5.280;2023-10-31T08:51:17;9.90;;;2.88;;
79578;SDS011;69051;52.406;5.280;2023-10-31T08:53:44;8.65;;;2.25;;
79578;SDS011;69051;52.406;5.280;2023-10-31T08:56:10;7.03;;;1.95;;
79578;SDS011;69051;52.406;5.280;2023-10-31T08:58:37;6.80;;;1.58;;
79578;SDS011;69051;52.406;5.280;2023-10-31T09:01:03;6.38;;;1.70;;
79578;SDS011;69051;52.406;5.280;2023-10-31T09:03:30;5.13;;;1.75;;
79578;SDS011;69051;52.406;5.280;2023-10-31T09:05:57;13.27;;;2.83;;
79578;SDS011;69051;52.406;5.280;2023-10-31T09:08:24;10.98;;;1.88;;
79578;SDS011;69051;52.406;5.280;2023-10-31T09:10:50;11.30;;;1.90;;
79578;SDS011;69051;52.406;5.280;2023-10-31T09:13:17;7.72;;;1.88;;
79578;SDS011;69051;52.406;5.280;2023-10-31T09:15:44;7.22;;;1.58;;
79578;SDS011;69051;52.406;5.280;2023-10-31T09:18:12;7.70;;;1.60;;
79578;SDS011;69051;52.406;5.280;2023-10-31T09:20:39;9.25;;;2.38;;
79578;SDS011;69051;52.406;5.280;2023-10-31T09:23:05;6.20;;;2.20;;
79578;SDS011;69051;52.406;5.280;2023-10-31T09:25:32;7.85;;;2.03;;
79578;SDS011;69051;52.406;5.280;2023-10-31T09:27:58;7.22;;;1.98;;
79578;SDS011;69051;52.406;5.280;2023-10-31T09:30:25;9.18;;;2.10;;
79578;SDS011;69051;52.406;5.280;2023-10-31T09:32:52;6.10;;;1.40;;
79578;SDS011;69051;52.406;5.280;2023-10-31T09:35:19;6.05;;;1.70;;
79578;SDS011;69051;52.406;5.280;2023-10-31T09:37:45;7.93;;;2.13;;
79578;SDS011;69051;52.406;5.280;2023-10-31T09:40:15;11.40;;;2.53;;
79578;SDS011;69051;52.406;5.280;2023-10-31T09:42:42;8.75;;;2.17;;
79578;SDS011;69051;52.406;5.280;2023-10-31T09:45:08;6.30;;;2.13;;
79578;SDS011;69051;52.406;5.280;2023-10-31T09:47:35;11.07;;;3.15;;
79578;SDS011;69051;52.406;5.280;2023-10-31T09:50:02;8.13;;;1.85;;
79578;SDS011;69051;52.406;5.280;2023-10-31T09:52:29;5.45;;;1.80;;
79578;SDS011;69051;52.406;5.280;2023-10-31T09:54:56;7.45;;;1.63;;
79578;SDS011;69051;52.406;5.280;2023-10-31T09:57:22;7.30;;;2.03;;
79578;SDS011;69051;52.406;5.280;2023-10-31T09:59:49;6.97;;;1.90;;
79578;SDS011;69051;52.406;5.280;2023-10-31T10:02:16;9.48;;;1.73;;
79578;SDS011;69051;52.406;5.280;2023-10-31T10:04:43;7.75;;;2.00;;
79578;SDS011;69051;52.406;5.280;2023-10-31T10:07:13;5.50;;;1.70;;
79578;SDS011;69051;52.406;5.280;2023-10-31T10:09:42;5.95;;;1.60;;
79578;SDS011;69051;52.406;5.280;2023-10-31T10:12:13;4.43;;;1.23;;
79578;SDS011;69051;52.406;5.280;2023-10-31T10:14:46;10.20;;;1.92;;
79578;SDS011;69051;52.406;5.280;2023-10-31T10:17:17;6.18;;;1.73;;
79578;SDS011;69051;52.406;5.280;2023-10-31T10:19:45;5.90;;;1.67;;
79578;SDS011;69051;52.406;5.280;2023-10-31T10:22:12;9.15;;;2.30;;
79578;SDS011;69051;52.406;5.280;2023-10-31T10:24:40;7.60;;;2.25;;
79578;SDS011;69051;52.406;5.280;2023-10-31T10:27:08;6.38;;;1.80;;
79578;SDS011;69051;52.406;5.280;2023-10-31T10:29:37;7.95;;;2.00;;
79578;SDS011;69051;52.406;5.280;2023-10-31T10:32:08;6.53;;;2.13;;
79578;SDS011;69051;52.406;5.280;2023-10-31T10:34:35;6.00;;;1.60;;
79578;SDS011;69051;52.406;5.280;2023-10-31T10:37:03;10.07;;;1.95;;
79578;SDS011;69051;52.406;5.280;2023-10-31T10:39:31;7.82;;;1.98;;
79578;SDS011;69051;52.406;5.280;2023-10-31T10:42:01;8.95;;;2.17;;
79578;SDS011;69051;52.406;5.280;2023-10-31T10:44:31;7.93;;;2.10;;
79578;SDS011;69051;52.406;5.280;2023-10-31T10:47:00;6.28;;;2.20;;
79578;SDS011;69051;52.406;5.280;2023-10-31T10:49:28;6.65;;;2.00;;
79578;SDS011;69051;52.406;5.280;2023-10-31T10:51:58;8.00;;;2.47;;
79578;SDS011;69051;52.406;5.280;2023-10-31T10:54:32;7.43;;;2.20;;
79578;SDS011;69051;52.406;5.280;2023-10-31T10:57:08;8.70;;;3.25;;
79578;SDS011;69051;52.406;5.280;2023-10-31T10:59:41;8.65;;;3.00;;
79578;SDS011;69051;52.406;5.280;2023-10-31T11:02:08;10.13;;;2.92;;
79578;SDS011;69051;52.406;5.280;2023-10-31T11:04:39;6.70;;;2.10;;
79578;SDS011;69051;52.406;5.280;2023-10-31T11:07:05;5.53;;;2.67;;
79578;SDS011;69051;52.406;5.280;2023-10-31T11:09:32;7.57;;;2.55;;
79578;SDS011;69051;52.406;5.280;2023-10-31T11:11:59;6.25;;;2.20;;
79578;SDS011;69051;52.406;5.280;2023-10-31T11:14:27;13.45;;;2.28;;
79578;SDS011;69051;52.406;5.280;2023-10-31T11:16:55;8.45;;;2.05;;
79578;SDS011;69051;52.406;5.280;2023-10-31T11:19:26;10.25;;;2.20;;
79578;SDS011;69051;52.406;5.280;2023-10-31T11:22:00;5.95;;;2.05;;
79578;SDS011;69051;52.406;5.280;2023-10-31T11:24:34;6.90;;;2.15;;
79578;SDS011;69051;52.406;5.280;2023-10-31T11:27:04;11.20;;;2.88;;
79578;SDS011;69051;52.406;5.280;2023-10-31T11:29:32;7.72;;;2.35;;
79578;SDS011;69051;52.406;5.280;2023-10-31T11:31:59;4.95;;;1.00;;
79578;SDS011;69051;52.406;5.280;2023-10-31T11:34:26;4.00;;;1.30;;
79578;SDS011;69051;52.406;5.280;2023-10-31T11:36:53;5.18;;;0.60;;
79578;SDS011;69051;52.406;5.280;2023-10-31T11:39:20;5.95;;;0.50;;
79578;SDS011;69051;52.406;5.280;2023-10-31T11:41:55;5.65;;;1.02;;
79578;SDS011;69051;52.406;5.280;2023-10-31T11:44:25;6.80;;;0.60;;
79578;SDS011;69051;52.406;5.280;2023-10-31T11:46:53;5.25;;;0.90;;
79578;SDS011;69051;52.406;5.280;2023-10-31T11:52:18;2.90;;;0.80;;
79578;SDS011;69051;52.406;5.280;2023-10-31T11:54:44;4.63;;;1.08;;
79578;SDS011;69051;52.406;5.280;2023-10-31T11:57:25;6.18;;;0.75;;
79578;SDS011;69051;52.406;5.280;2023-10-31T11:59:55;4.88;;;0.60;;
79578;SDS011;69051;52.406;5.280;2023-10-31T12:02:21;4.38;;;0.63;;
79578;SDS011;69051;52.406;5.280;2023-10-31T12:04:47;4.10;;;0.98;;
79578;SDS011;69051;52.406;5.280;2023-10-31T12:07:14;4.15;;;0.80;;
79578;SDS011;69051;52.406;5.280;2023-10-31T12:09:47;5.55;;;0.95;;
79578;SDS011;69051;52.406;5.280;2023-10-31T12:12:14;3.55;;;0.65;;
79578;SDS011;69051;52.406;5.280;2023-10-31T12:14:40;2.88;;;0.80;;
79578;SDS011;69051;52.406;5.280;2023-10-31T12:17:07;3.22;;;0.70;;
79578;SDS011;69051;52.406;5.280;2023-10-31T12:19:36;6.78;;;0.52;;
79578;SDS011;69051;52.406;5.280;2023-10-31T12:22:11;2.67;;;0.75;;
79578;SDS011;69051;52.406;5.280;2023-10-31T12:24:38;3.13;;;1.10;;
79578;SDS011;69051;52.406;5.280;2023-10-31T12:27:05;1.77;;;0.50;;
79578;SDS011;69051;52.406;5.280;2023-10-31T12:29:31;1.50;;;0.60;;
79578;SDS011;69051;52.406;5.280;2023-10-31T12:31:58;5.32;;;1.00;;
79578;SDS011;69051;52.406;5.280;2023-10-31T12:34:24;3.70;;;0.55;;
79578;SDS011;69051;52.406;5.280;2023-10-31T12:36:51;3.42;;;1.02;;
79578;SDS011;69051;52.406;5.280;2023-10-31T12:39:20;5.93;;;1.08;;
79578;SDS011;69051;52.406;5.280;2023-10-31T12:41:48;4.57;;;0.77;;
79578;SDS011;69051;52.406;5.280;2023-10-31T12:44:20;0.60;;;0.40;;
79578;SDS011;69051;52.406;5.280;2023-10-31T12:46:49;2.78;;;0.73;;
79578;SDS011;69051;52.406;5.280;2023-10-31T12:49:16;1.95;;;0.50;;
79578;SDS011;69051;52.406;5.280;2023-10-31T12:51:59;4.57;;;0.82;;
79578;SDS011;69051;52.406;5.280;2023-10-31T12:54:30;2.05;;;0.50;;
79578;SDS011;69051;52.406;5.280;2023-10-31T12:57:01;2.88;;;0.80;;
79578;SDS011;69051;52.406;5.280;2023-10-31T12:59:30;4.68;;;0.60;;
79578;SDS011;69051;52.406;5.280;2023-10-31T13:01:58;4.93;;;0.80;;
79578;SDS011;69051;52.406;5.280;2023-10-31T13:04:25;4.63;;;0.90;;
79578;SDS011;69051;52.406;5.280;2023-10-31T13:06:59;5.03;;;0.90;;
79578;SDS011;69051;52.406;5.280;2023-10-31T13:09:28;7.70;;;1.45;;
79578;SDS011;69051;52.406;5.280;2023-10-31T13:11:59;7.35;;;1.90;;
79578;SDS011;69051;52.406;5.280;2023-10-31T13:14:26;5.53;;;0.75;;
79578;SDS011;69051;52.406;5.280;2023-10-31T13:16:53;3.35;;;0.82;;
79578;SDS011;69051;52.406;5.280;2023-10-31T13:19:19;3.35;;;1.00;;
79578;SDS011;69051;52.406;5.280;2023-10-31T13:21:48;9.25;;;0.80;;
79578;SDS011;69051;52.406;5.280;2023-10-31T13:24:14;5.60;;;0.73;;
79578;SDS011;69051;52.406;5.280;2023-10-31T13:26:41;5.32;;;0.98;;
79578;SDS011;69051;52.406;5.280;2023-10-31T13:29:10;3.85;;;0.70;;
79578;SDS011;69051;52.406;5.280;2023-10-31T13:31:37;4.95;;;1.00;;
79578;SDS011;69051;52.406;5.280;2023-10-31T13:34:04;3.90;;;0.90;;
79578;SDS011;69051;52.406;5.280;2023-10-31T13:36:30;3.25;;;1.10;;
79578;SDS011;69051;52.406;5.280;2023-10-31T13:38:57;4.28;;;1.30;;
79578;SDS011;69051;52.406;5.280;2023-10-31T13:41:23;3.40;;;1.13;;
79578;SDS011;69051;52.406;5.280;2023-10-31T13:43:50;3.95;;;1.02;;
79578;SDS011;69051;52.406;5.280;2023-10-31T13:46:16;3.45;;;1.17;;
79578;SDS011;69051;52.406;5.280;2023-10-31T13:48:43;4.40;;;1.05;;
79578;SDS011;69051;52.406;5.280;2023-10-31T13:51:10;5.20;;;1.42;;
79578;SDS011;69051;52.406;5.280;2023-10-31T13:53:36;6.45;;;1.60;;
79578;SDS011;69051;52.406;5.280;2023-10-31T13:56:03;4.80;;;1.77;;
79578;SDS011;69051;52.406;5.280;2023-10-31T13:58:29;4.28;;;1.30;;
79578;SDS011;69051;52.406;5.280;2023-10-31T14:00:56;7.57;;;2.00;;
79578;SDS011;69051;52.406;5.280;2023-10-31T14:03:22;8.05;;;2.30;;
79578;SDS011;69051;52.406;5.280;2023-10-31T14:05:49;11.98;;;3.38;;
79578;SDS011;69051;52.406;5.280;2023-10-31T14:08:16;6.32;;;2.28;;
79578;SDS011;69051;52.406;5.280;2023-10-31T14:10:44;9.18;;;2.80;;
79578;SDS011;69051;52.406;5.280;2023-10-31T14:13:12;9.70;;;3.10;;
79578;SDS011;69051;52.406;5.280;2023-10-31T14:15:38;8.52;;;3.60;;
79578;SDS011;69051;52.406;5.280;2023-10-31T14:18:04;8.57;;;3.80;;
79578;SDS011;69051;52.406;5.280;2023-10-31T14:20:31;12.10;;;5.47;;
79578;SDS011;69051;52.406;5.280;2023-10-31T14:22:57;8.85;;;4.35;;
79578;SDS011;69051;52.406;5.280;2023-10-31T14:25:24;13.23;;;4.95;;
79578;SDS011;69051;52.406;5.280;2023-10-31T14:27:50;17.17;;;6.25;;
79578;SDS011;69051;52.406;5.280;2023-10-31T14:30:17;13.43;;;5.53;;
79578;SDS011;69051;52.406;5.280;2023-10-31T14:32:44;15.43;;;6.45;;
79578;SDS011;69051;52.406;5.280;2023-10-31T14:35:10;14.32;;;6.32;;
79578;SDS011;69051;52.406;5.280;2023-10-31T14:37:37;19.10;;;6.85;;
79578;SDS011;69051;52.406;5.280;2023-10-31T14:40:04;20.50;;;6.38;;
79578;SDS011;69051;52.406;5.280;2023-10-31T14:42:32;18.83;;;6.80;;
79578;SDS011;69051;52.406;5.280;2023-10-31T14:44:58;16.17;;;7.03;;